Aérodrome :
LOGIN :

S'inscrire | Disclaimer

   EN    FR    IT 

 










Légende :    VFR   VFR Marginal   IFR   IFR Intensif   IFR Très Intensif
Visi : 
Plafond : 
>= 8 km
>= 3000ft
5 à 8 km
1000 à 3000 ft
1500m à 5 km
500 à 1000 ft
800 à 1500m
200 à 500 ft
< 800m
< 200 ft
Symboles :   Orages  Brouillard  Fortes neiges  Fortes précipitations  Vent > 20 kt
SIGMETs :   Divers  Orages  Givrage  Turbulence  Onde Orograph.  Cendres Volcan.






- Altitude de l'aérodrome : 348 ft
- Code IATA : STN


EGSS - London Stansted

DERNIER METAR :
  • 150920Z AUTO 22014KT 9999 NCD 05/03 Q0994

METARs EXPIRÉS :
  • 150850Z AUTO 22013KT 9999 BKN032 05/02 Q0994
  • 150820Z AUTO 22012KT 9999 SCT032 BKN047 04/02 Q0993
  • 150750Z AUTO 22013KT 9999 FEW039 04/02 Q0993
  • 150720Z AUTO 22016KT 9999 NCD 04/02 Q0992
  • 150650Z AUTO 22016KT 9999 NCD 04/01 Q0992

TAF COR TAF EGSS
Valide du 15 à 07h jusqu'au 16 à 12h UTC


150736Z 1507/1612 22012KT 9999 SCT030
TEMPO 1507/1601 21015G25KT
TEMPO 1507/1510 7000 SHRA
PROB30
TEMPO 1510/1515 BKN010
PROB30
TEMPO 1515/1524 6000 SHRA BKN011
ATIS : +44 1279 669 325



MET'MAP, la Météo Aéronautique d'un coup d'oeil ! - Copyright ORBIFLY Décembre 2007 - Disclaimer

ORBIFLY MET'MAP TEAM :

Programmation & Développement : Alexandra Zaïnal
Sur une idée originale de : Baudouin d'Aumeries
Assistance à la programmation : Marc-Olivier Méhu
Soutien technique & logistique : Manuel Goepfert

Contact : metmap@orbifly.com




SOURCES & CREDITS :

   NOAA